createdAt,value
2018-08-28T00:01:59.420Z,2.83
2018-08-28T00:04:33.365Z,2.30
2018-08-28T00:07:00.652Z,2.20
2018-08-28T00:09:27.852Z,2.07
2018-08-28T00:11:55.053Z,2.27
2018-08-28T00:14:22.832Z,2.37
2018-08-28T00:16:50.008Z,2.23
2018-08-28T00:19:17.161Z,2.60
2018-08-28T00:21:45.620Z,1.80
2018-08-28T00:24:12.853Z,2.53
2018-08-28T00:26:40.004Z,2.23
2018-08-28T00:29:07.115Z,2.10
2018-08-28T00:31:34.271Z,2.23
2018-08-28T00:34:01.402Z,2.40
2018-08-28T00:36:28.631Z,2.47
2018-08-28T00:38:55.731Z,2.33
2018-08-28T00:41:22.864Z,2.43
2018-08-28T00:43:50.101Z,2.70
2018-08-28T00:46:17.264Z,3.17
2018-08-28T00:48:44.582Z,2.20
2018-08-28T00:51:11.864Z,2.90
2018-08-28T00:53:39.017Z,3.00
2018-08-28T00:56:06.189Z,2.30
2018-08-28T00:58:33.338Z,2.90
2018-08-28T01:01:00.548Z,2.57
2018-08-28T01:03:27.709Z,2.23
2018-08-28T01:05:54.860Z,2.40
2018-08-28T01:08:22.048Z,2.70
2018-08-28T01:10:49.154Z,3.00
2018-08-28T01:13:16.297Z,2.03
2018-08-28T01:15:44.126Z,2.10
2018-08-28T01:18:11.293Z,2.90
2018-08-28T01:20:38.412Z,2.20
2018-08-28T01:23:05.648Z,2.33
2018-08-28T01:25:32.812Z,2.63
2018-08-28T01:27:59.960Z,2.37
2018-08-28T01:30:32.033Z,3.20
2018-08-28T01:32:59.201Z,2.27
2018-08-28T01:35:33.177Z,3.23
2018-08-28T01:38:00.347Z,1.90
2018-08-28T01:40:27.948Z,2.70
2018-08-28T01:42:55.526Z,2.90
2018-08-28T01:45:22.596Z,2.53
2018-08-28T01:47:49.904Z,3.40
2018-08-28T01:50:17.100Z,3.00
2018-08-28T01:52:44.327Z,2.37
2018-08-28T01:55:11.566Z,3.10
2018-08-28T01:57:38.897Z,2.43
2018-08-28T02:00:06.340Z,2.43
2018-08-28T02:02:33.525Z,3.00
2018-08-28T02:05:00.647Z,3.60
2018-08-28T02:07:27.800Z,2.93
2018-08-28T02:09:54.980Z,3.00
2018-08-28T02:12:22.101Z,3.03
2018-08-28T02:14:49.213Z,2.17
2018-08-28T02:17:16.361Z,2.90
2018-08-28T02:19:43.473Z,2.43
2018-08-28T02:22:10.707Z,2.63
2018-08-28T02:24:37.848Z,2.70
2018-08-28T02:27:05.418Z,3.13
2018-08-28T02:29:32.600Z,3.23
2018-08-28T02:31:59.748Z,2.60
2018-08-28T02:34:26.955Z,2.90
2018-08-28T02:36:54.239Z,2.30
2018-08-28T02:39:21.348Z,2.33
2018-08-28T02:41:48.480Z,2.57
2018-08-28T02:44:15.704Z,3.07
2018-08-28T02:46:42.836Z,2.43
2018-08-28T02:49:09.971Z,2.70
2018-08-28T02:51:37.125Z,2.80
2018-08-28T02:54:04.245Z,3.20
2018-08-28T02:56:31.419Z,2.30
2018-08-28T02:58:58.553Z,2.40
2018-08-28T03:01:25.957Z,2.57
2018-08-28T03:03:53.125Z,2.50
2018-08-28T03:06:20.514Z,2.27
2018-08-28T03:08:47.868Z,3.27
2018-08-28T03:11:15.044Z,2.90
2018-08-28T03:13:42.233Z,2.83
2018-08-28T03:16:09.469Z,2.50
2018-08-28T03:18:36.656Z,3.60
2018-08-28T03:21:03.799Z,3.30
2018-08-28T03:23:38.213Z,2.93
2018-08-28T03:26:05.334Z,2.20
2018-08-28T03:28:32.485Z,2.70
2018-08-28T03:30:59.634Z,3.07
2018-08-28T03:33:26.772Z,2.73
2018-08-28T03:35:54.026Z,2.60
2018-08-28T03:38:21.324Z,2.63
2018-08-28T03:40:48.569Z,2.93
2018-08-28T03:43:15.896Z,2.90
2018-08-28T03:45:43.024Z,2.80
2018-08-28T03:48:10.216Z,2.50
2018-08-28T03:50:37.351Z,3.27
2018-08-28T03:53:05.048Z,3.17
2018-08-28T03:55:32.218Z,2.73
2018-08-28T03:57:59.356Z,3.30
2018-08-28T04:00:26.492Z,2.70
2018-08-28T04:02:53.777Z,3.10
2018-08-28T04:05:20.993Z,2.40
2018-08-28T04:07:48.173Z,2.70
2018-08-28T04:10:15.408Z,2.87
2018-08-28T04:12:42.599Z,2.93
2018-08-28T04:15:09.728Z,2.37
2018-08-28T04:17:41.355Z,4.10
2018-08-28T04:20:08.632Z,3.00
2018-08-28T04:22:35.888Z,2.70
2018-08-28T04:25:03.200Z,3.43
2018-08-28T04:27:30.344Z,3.43
2018-08-28T04:29:57.521Z,3.87
2018-08-28T04:32:24.631Z,3.60
2018-08-28T04:34:51.825Z,3.67
2018-08-28T04:37:19.108Z,2.77
2018-08-28T04:39:46.249Z,3.10
2018-08-28T04:42:13.769Z,3.13
2018-08-28T04:44:40.883Z,3.93
2018-08-28T04:47:08.124Z,2.83
2018-08-28T04:49:35.301Z,3.30
2018-08-28T04:52:02.492Z,3.73
2018-08-28T04:54:29.613Z,3.10
2018-08-28T04:56:56.781Z,4.27
2018-08-28T04:59:23.969Z,3.87
2018-08-28T05:01:51.155Z,3.20
2018-08-28T05:04:18.289Z,4.13
2018-08-28T05:06:45.416Z,3.40
2018-08-28T05:09:12.705Z,3.17
2018-08-28T05:11:39.884Z,3.23
2018-08-28T05:14:07.048Z,3.53
2018-08-28T05:16:34.235Z,3.20
2018-08-28T05:19:01.361Z,3.33
2018-08-28T05:21:28.573Z,3.10
2018-08-28T05:23:55.777Z,3.03
2018-08-28T05:26:22.889Z,2.93
2018-08-28T05:28:50.086Z,3.20
2018-08-28T05:31:17.266Z,3.00
2018-08-28T05:33:44.350Z,3.07
2018-08-28T05:36:11.604Z,3.00
2018-08-28T05:38:38.725Z,3.80
2018-08-28T05:41:05.901Z,3.10
2018-08-28T05:43:33.090Z,3.20
2018-08-28T05:46:00.229Z,3.63
2018-08-28T05:48:27.361Z,4.30
2018-08-28T05:50:54.546Z,3.73
2018-08-28T05:53:21.672Z,3.47
2018-08-28T05:55:48.924Z,3.23
2018-08-28T05:58:16.134Z,2.97
2018-08-28T06:00:43.336Z,3.27
2018-08-28T06:03:10.547Z,3.90
2018-08-28T06:05:37.631Z,3.23
2018-08-28T06:08:05.083Z,2.90
2018-08-28T06:10:32.352Z,3.30
2018-08-28T06:12:59.478Z,3.20
2018-08-28T06:15:26.574Z,3.63
2018-08-28T06:17:53.792Z,3.70
2018-08-28T06:20:20.902Z,3.17
2018-08-28T06:22:48.047Z,3.93
2018-08-28T06:25:15.314Z,3.83
2018-08-28T06:27:42.436Z,4.33
2018-08-28T06:30:09.573Z,3.83
2018-08-28T06:32:36.744Z,3.90
2018-08-28T06:35:05.078Z,4.57
2018-08-28T06:37:32.278Z,4.90
2018-08-28T06:39:59.389Z,4.20
2018-08-28T06:42:26.519Z,4.90
2018-08-28T06:44:53.773Z,4.50
2018-08-28T06:47:20.962Z,4.10
2018-08-28T06:49:48.179Z,4.60
2018-08-28T06:52:15.502Z,5.13
2018-08-28T06:54:42.638Z,6.17
2018-08-28T06:57:09.860Z,6.30
2018-08-28T06:59:37.025Z,8.33
2018-08-28T07:02:04.233Z,8.07
2018-08-28T07:04:31.468Z,10.07
2018-08-28T07:06:58.728Z,10.83
2018-08-28T07:09:25.837Z,9.70
2018-08-28T07:11:53.075Z,10.27
2018-08-28T07:14:20.221Z,10.20
2018-08-28T07:16:47.373Z,10.33
2018-08-28T07:19:14.922Z,10.50
2018-08-28T07:21:42.397Z,10.67
2018-08-28T07:24:09.525Z,11.83
2018-08-28T07:26:36.733Z,12.30
2018-08-28T07:29:03.849Z,12.43
2018-08-28T07:31:31.162Z,11.83
2018-08-28T07:33:58.416Z,11.63
2018-08-28T07:36:25.540Z,11.67
2018-08-28T07:38:52.807Z,12.17
2018-08-28T07:41:19.933Z,12.30
2018-08-28T07:43:47.035Z,12.23
2018-08-28T07:46:14.328Z,10.80
2018-08-28T07:48:41.445Z,9.20
2018-08-28T07:51:08.600Z,9.30
2018-08-28T07:53:42.744Z,8.83
2018-08-28T07:56:09.864Z,7.87
2018-08-28T07:58:37.045Z,8.30
2018-08-28T08:01:04.284Z,8.10
2018-08-28T08:03:31.439Z,7.53
2018-08-28T08:05:58.640Z,9.20
2018-08-28T08:08:25.832Z,8.77
2018-08-28T08:10:53.276Z,8.40
2018-08-28T08:13:20.580Z,8.67
2018-08-28T08:15:48.130Z,8.93
2018-08-28T08:18:15.456Z,7.40
2018-08-28T08:20:42.809Z,7.30
2018-08-28T08:23:10.153Z,8.47
2018-08-28T08:25:37.436Z,7.73
2018-08-28T08:28:04.677Z,7.90
2018-08-28T08:30:31.710Z,8.00
2018-08-28T08:32:59.193Z,7.17
2018-08-28T08:35:26.424Z,6.70
2018-08-28T08:37:53.570Z,7.00
2018-08-28T08:40:20.709Z,8.20
2018-08-28T08:42:47.846Z,8.00
2018-08-28T08:45:14.997Z,8.33
2018-08-28T08:47:42.217Z,8.27
2018-08-28T08:50:09.317Z,6.87
2018-08-28T08:52:36.463Z,7.40
2018-08-28T08:55:04.459Z,7.53
2018-08-28T08:57:31.696Z,6.27
2018-08-28T08:59:58.757Z,6.60
2018-08-28T09:02:26.069Z,7.20
2018-08-28T09:04:53.386Z,7.10
2018-08-28T09:07:20.552Z,6.80
2018-08-28T09:09:47.661Z,7.57
2018-08-28T09:12:14.803Z,7.20
2018-08-28T09:14:42.168Z,6.43
2018-08-28T09:17:09.323Z,7.03
2018-08-28T09:19:36.470Z,7.00
2018-08-28T09:22:03.648Z,6.23
2018-08-28T09:24:30.768Z,7.07
2018-08-28T09:26:58.094Z,7.60
2018-08-28T09:29:25.325Z,6.60
2018-08-28T09:31:52.469Z,6.67
2018-08-28T09:34:19.612Z,6.30
2018-08-28T09:36:46.752Z,6.77
2018-08-28T09:39:13.885Z,5.70
2018-08-28T09:41:41.174Z,7.80
2018-08-28T09:44:08.349Z,6.97
2018-08-28T09:46:35.476Z,6.90
2018-08-28T09:49:02.773Z,6.63
2018-08-28T09:51:29.899Z,6.83
2018-08-28T09:53:57.146Z,6.50
2018-08-28T09:56:24.414Z,6.90
2018-08-28T09:58:51.569Z,7.20
2018-08-28T10:01:24.612Z,7.00
2018-08-28T10:03:51.763Z,6.90
2018-08-28T10:06:18.967Z,6.73
2018-08-28T10:08:46.065Z,6.60
2018-08-28T10:11:13.152Z,7.37
2018-08-28T10:13:40.388Z,6.90
2018-08-28T10:16:07.516Z,6.83
2018-08-28T10:18:34.676Z,6.73
2018-08-28T10:21:01.884Z,7.30
2018-08-28T10:23:29.026Z,6.17
2018-08-28T10:25:56.313Z,6.70
2018-08-28T10:28:23.496Z,6.47
2018-08-28T10:30:50.707Z,6.27
2018-08-28T10:33:18.116Z,6.37
2018-08-28T10:35:45.958Z,6.63
2018-08-28T10:38:13.196Z,6.37
2018-08-28T10:40:40.369Z,5.40
2018-08-28T10:43:07.688Z,6.50
2018-08-28T10:45:34.836Z,6.50
2018-08-28T10:48:02.044Z,6.43
2018-08-28T10:50:29.205Z,6.37
2018-08-28T10:52:56.426Z,6.23
2018-08-28T10:55:23.709Z,5.80
2018-08-28T10:57:50.823Z,6.13
2018-08-28T11:00:17.947Z,5.80
2018-08-28T11:02:45.090Z,5.57
2018-08-28T11:05:12.234Z,5.47
2018-08-28T11:07:39.420Z,6.20
2018-08-28T11:10:07.045Z,6.77
2018-08-28T11:12:34.216Z,7.03
2018-08-28T11:15:01.425Z,6.10
2018-08-28T11:17:28.546Z,5.53
2018-08-28T11:19:56.356Z,5.43
2018-08-28T11:22:23.663Z,5.33
2018-08-28T11:24:50.768Z,5.53
2018-08-28T11:27:17.918Z,7.10
2018-08-28T11:29:45.193Z,6.23
2018-08-28T11:32:12.380Z,6.17
2018-08-28T11:34:39.620Z,5.93
2018-08-28T11:37:06.801Z,5.47
2018-08-28T11:39:34.002Z,4.97
2018-08-28T11:42:01.173Z,5.87
2018-08-28T11:44:28.353Z,5.43
2018-08-28T11:46:55.537Z,5.30
2018-08-28T11:49:22.769Z,5.80
2018-08-28T11:51:49.905Z,5.77
2018-08-28T11:54:17.089Z,4.53
2018-08-28T11:56:44.315Z,5.33
2018-08-28T11:59:11.450Z,6.10
2018-08-28T12:01:38.602Z,5.33
2018-08-28T12:04:06.258Z,5.63
2018-08-28T12:06:33.431Z,4.53
2018-08-28T12:09:00.605Z,5.33
2018-08-28T12:11:27.748Z,5.23
2018-08-28T12:13:54.865Z,5.23
2018-08-28T12:16:22.100Z,4.60
2018-08-28T12:18:49.240Z,4.83
2018-08-28T12:21:16.417Z,5.23
2018-08-28T12:23:43.708Z,5.67
2018-08-28T12:26:10.885Z,5.53
2018-08-28T12:28:38.100Z,5.70
2018-08-28T12:31:05.257Z,5.37
2018-08-28T12:33:32.391Z,5.90
2018-08-28T12:35:59.544Z,4.90
2018-08-28T12:38:26.777Z,5.10
2018-08-28T12:40:53.892Z,5.10
2018-08-28T12:43:21.101Z,5.13
2018-08-28T12:45:48.428Z,4.87
2018-08-28T12:48:15.610Z,5.30
2018-08-28T12:50:43.073Z,4.70
2018-08-28T12:53:10.253Z,4.70
2018-08-28T12:55:37.349Z,5.23
2018-08-28T12:58:04.879Z,5.40
2018-08-28T13:00:32.094Z,4.97
2018-08-28T13:02:59.220Z,5.50
2018-08-28T13:05:26.494Z,4.57
2018-08-28T13:07:53.748Z,5.00
2018-08-28T13:10:20.885Z,4.50
2018-08-28T13:12:48.249Z,6.03
2018-08-28T13:15:15.414Z,5.53
2018-08-28T13:17:42.772Z,5.83
2018-08-28T13:20:09.949Z,4.97
2018-08-28T13:22:37.109Z,5.40
2018-08-28T13:25:05.027Z,5.30
2018-08-28T13:27:32.229Z,5.03
2018-08-28T13:29:59.415Z,4.37
2018-08-28T13:32:26.641Z,4.30
2018-08-28T13:34:53.754Z,5.20
2018-08-28T13:37:20.905Z,4.90
2018-08-28T13:39:48.127Z,4.80
2018-08-28T13:42:15.293Z,4.57
2018-08-28T13:44:42.444Z,5.20
2018-08-28T13:47:09.764Z,5.83
2018-08-28T13:49:36.823Z,5.03
2018-08-28T13:52:04.094Z,4.40
2018-08-28T13:54:31.424Z,3.80
2018-08-28T13:56:58.501Z,4.60
2018-08-28T13:59:25.806Z,5.30
2018-08-28T14:01:52.993Z,4.70
2018-08-28T14:04:20.149Z,4.47
2018-08-28T14:06:47.490Z,5.70
2018-08-28T14:09:14.633Z,4.53
2018-08-28T14:11:42.120Z,5.40
2018-08-28T14:14:09.398Z,5.03
2018-08-28T14:16:36.549Z,4.60
2018-08-28T14:19:03.856Z,4.20
2018-08-28T14:21:31.092Z,4.63
2018-08-28T14:23:58.288Z,4.67
2018-08-28T14:26:25.557Z,4.77
2018-08-28T14:28:53.150Z,4.83
2018-08-28T14:31:20.294Z,4.63
2018-08-28T14:33:47.611Z,4.40
2018-08-28T14:36:14.895Z,4.40
2018-08-28T14:38:42.138Z,4.50
2018-08-28T14:41:09.451Z,4.50
2018-08-28T14:43:36.627Z,4.60
2018-08-28T14:46:03.806Z,4.60
2018-08-28T14:48:31.204Z,4.40
2018-08-28T14:50:58.374Z,5.00
2018-08-28T14:53:25.571Z,4.87
2018-08-28T14:55:52.758Z,5.70
2018-08-28T14:58:19.982Z,4.57
2018-08-28T15:00:47.359Z,4.63
2018-08-28T15:03:14.565Z,4.50
2018-08-28T15:05:41.732Z,5.77
2018-08-28T15:08:08.958Z,5.23
2018-08-28T15:10:36.128Z,4.23
2018-08-28T15:13:03.365Z,4.37
2018-08-28T15:15:30.731Z,5.67
2018-08-28T15:17:57.925Z,4.60
2018-08-28T15:20:25.109Z,5.00
2018-08-28T15:22:52.353Z,4.20
2018-08-28T15:25:19.526Z,4.10
2018-08-28T15:27:46.785Z,5.07
2018-08-28T15:30:14.664Z,4.60
2018-08-28T15:32:42.003Z,5.30
2018-08-28T15:35:09.292Z,5.17
2018-08-28T15:37:36.502Z,4.70
2018-08-28T15:40:04.465Z,5.67
2018-08-28T15:42:31.816Z,4.67
2018-08-28T15:44:59.084Z,4.80
2018-08-28T15:47:26.317Z,5.20
2018-08-28T15:49:53.501Z,4.70
2018-08-28T15:52:20.665Z,3.97
2018-08-28T15:54:47.828Z,3.97
2018-08-28T15:57:15.186Z,4.73
2018-08-28T15:59:43.078Z,4.00
2018-08-28T16:02:10.661Z,4.13
2018-08-28T16:04:37.871Z,4.40
2018-08-28T16:07:05.025Z,4.30
2018-08-28T16:09:32.214Z,4.50
2018-08-28T16:11:59.450Z,4.10
2018-08-28T16:14:26.626Z,4.70
2018-08-28T16:16:53.789Z,4.40
2018-08-28T16:19:21.100Z,4.80
2018-08-28T16:21:55.050Z,4.80
2018-08-28T16:24:22.538Z,4.43
2018-08-28T16:26:49.749Z,5.07
2018-08-28T16:29:16.914Z,4.43
2018-08-28T16:31:44.960Z,5.07
2018-08-28T16:34:12.300Z,4.53
2018-08-28T16:36:39.923Z,5.30
2018-08-28T16:39:08.319Z,5.30
2018-08-28T16:41:35.879Z,4.33
2018-08-28T16:44:03.073Z,4.83
2018-08-28T16:46:30.252Z,5.33
2018-08-28T16:48:57.734Z,4.80
2018-08-28T16:51:25.036Z,5.50
2018-08-28T16:53:52.189Z,4.97
2018-08-28T16:56:19.404Z,6.57
2018-08-28T16:58:46.584Z,5.20
2018-08-28T17:01:13.990Z,4.57
2018-08-28T17:03:41.287Z,4.87
2018-08-28T17:06:08.456Z,4.57
2018-08-28T17:08:35.757Z,4.53
2018-08-28T17:11:02.913Z,4.77
2018-08-28T17:13:30.109Z,4.07
2018-08-28T17:15:57.601Z,5.17
2018-08-28T17:18:24.809Z,4.13
2018-08-28T17:20:51.953Z,4.47
2018-08-28T17:23:19.187Z,4.70
2018-08-28T17:25:46.300Z,4.50
2018-08-28T17:28:13.681Z,5.40
2018-08-28T17:30:40.939Z,5.40
2018-08-28T17:33:08.177Z,5.60
2018-08-28T17:35:35.435Z,4.43
2018-08-28T17:38:02.650Z,5.33
2018-08-28T17:40:29.808Z,4.50
2018-08-28T17:42:56.994Z,5.63
2018-08-28T17:45:24.161Z,5.70
2018-08-28T17:47:51.295Z,5.57
2018-08-28T17:50:18.497Z,5.20
2018-08-28T17:52:45.686Z,5.23
2018-08-28T17:55:13.083Z,5.53
2018-08-28T17:57:40.396Z,4.60
2018-08-28T18:00:07.769Z,4.67
2018-08-28T18:02:34.952Z,5.77
2018-08-28T18:05:02.279Z,5.40
2018-08-28T18:07:29.436Z,5.17
2018-08-28T18:09:56.656Z,5.27
2018-08-28T18:12:23.816Z,5.60
2018-08-28T18:14:51.984Z,5.53
2018-08-28T18:17:19.245Z,6.30
2018-08-28T18:19:46.369Z,5.70
2018-08-28T18:22:13.509Z,8.20
2018-08-28T18:24:40.764Z,9.67
2018-08-28T18:27:07.964Z,8.87
2018-08-28T18:29:35.225Z,9.20
2018-08-28T18:32:02.380Z,8.57
2018-08-28T18:34:29.597Z,8.47
2018-08-28T18:36:56.883Z,7.77
2018-08-28T18:39:24.195Z,7.50
2018-08-28T18:41:51.403Z,7.50
2018-08-28T18:44:18.761Z,6.83
2018-08-28T18:46:46.040Z,7.17
2018-08-28T18:49:13.234Z,6.93
2018-08-28T18:51:40.495Z,7.13
2018-08-28T18:54:07.732Z,7.97
2018-08-28T18:56:34.862Z,6.83
2018-08-28T18:59:02.178Z,7.40
2018-08-28T19:01:29.365Z,7.07
2018-08-28T19:03:56.529Z,6.37
2018-08-28T19:06:23.753Z,6.97
2018-08-28T19:08:51.039Z,6.83
2018-08-28T19:11:18.651Z,6.87
2018-08-28T19:13:46.216Z,6.73
2018-08-28T19:16:14.335Z,6.63
2018-08-28T19:18:41.533Z,7.13
2018-08-28T19:21:09.316Z,6.20
2018-08-28T19:23:36.513Z,6.47
2018-08-28T19:26:04.401Z,6.53
2018-08-28T19:28:31.562Z,6.40
2018-08-28T19:30:59.064Z,6.37
2018-08-28T19:33:26.526Z,6.13
2018-08-28T19:35:53.777Z,6.40
2018-08-28T19:38:21.036Z,5.90
2018-08-28T19:40:48.163Z,6.30
2018-08-28T19:43:15.432Z,5.80
2018-08-28T19:45:43.187Z,6.97
2018-08-28T19:48:10.347Z,6.90
2018-08-28T19:50:37.640Z,6.53
2018-08-28T19:53:04.787Z,6.87
2018-08-28T19:55:31.984Z,7.20
2018-08-28T19:57:59.148Z,7.10
2018-08-28T20:00:26.384Z,7.03
2018-08-28T20:02:53.623Z,6.20
2018-08-28T20:05:20.917Z,6.33
2018-08-28T20:07:48.097Z,6.60
2018-08-28T20:10:15.378Z,6.10
2018-08-28T20:12:42.572Z,7.07
2018-08-28T20:15:09.737Z,6.80
2018-08-28T20:17:37.124Z,6.77
2018-08-28T20:20:05.436Z,6.60
2018-08-28T20:22:32.642Z,6.00
2018-08-28T20:24:59.936Z,6.50
2018-08-28T20:27:27.116Z,5.53
2018-08-28T20:29:54.475Z,7.20
2018-08-28T20:32:21.563Z,6.57
2018-08-28T20:34:48.720Z,6.40
2018-08-28T20:37:15.929Z,7.20
2018-08-28T20:39:43.085Z,6.33
2018-08-28T20:42:10.208Z,6.50
2018-08-28T20:44:37.395Z,9.70
2018-08-28T20:47:04.945Z,8.70
2018-08-28T20:49:32.095Z,10.27
2018-08-28T20:51:59.420Z,9.63
2018-08-28T20:54:26.604Z,10.50
2018-08-28T20:56:53.726Z,9.90
2018-08-28T20:59:20.937Z,10.47
2018-08-28T21:01:48.099Z,10.50
2018-08-28T21:04:15.289Z,9.20
2018-08-28T21:06:42.551Z,9.07
2018-08-28T21:09:09.720Z,9.13
2018-08-28T21:11:36.968Z,8.47
2018-08-28T21:14:04.184Z,9.43
2018-08-28T21:16:31.384Z,9.33
2018-08-28T21:18:58.629Z,9.00
2018-08-28T21:21:25.791Z,8.73
2018-08-28T21:23:53.050Z,9.23
2018-08-28T21:26:20.274Z,8.23
2018-08-28T21:28:47.453Z,8.90
2018-08-28T21:31:14.627Z,10.47
2018-08-28T21:33:41.866Z,8.47
2018-08-28T21:36:09.094Z,7.90
2018-08-28T21:38:36.294Z,8.87
2018-08-28T21:41:03.517Z,9.17
2018-08-28T21:43:30.668Z,8.63
2018-08-28T21:45:58.012Z,9.30
2018-08-28T21:48:25.209Z,7.30
2018-08-28T21:50:52.401Z,7.70
2018-08-28T21:53:19.552Z,8.43
2018-08-28T21:55:46.696Z,10.00
2018-08-28T21:58:13.772Z,8.70
2018-08-28T22:00:41.064Z,8.43
2018-08-28T22:03:08.244Z,8.30
2018-08-28T22:05:35.477Z,8.07
2018-08-28T22:08:04.054Z,8.43
2018-08-28T22:10:31.715Z,8.07
2018-08-28T22:12:58.873Z,8.63
2018-08-28T22:15:26.050Z,9.00
2018-08-28T22:17:53.739Z,7.93
2018-08-28T22:20:21.036Z,7.63
2018-08-28T22:22:48.285Z,9.10
2018-08-28T22:25:15.453Z,8.30
2018-08-28T22:27:42.633Z,8.77
2018-08-28T22:30:10.489Z,8.80
2018-08-28T22:32:38.050Z,7.57
2018-08-28T22:35:05.464Z,9.13
2018-08-28T22:37:32.792Z,8.50
2018-08-28T22:39:59.925Z,7.60
2018-08-28T22:42:27.072Z,7.80
2018-08-28T22:44:54.217Z,9.40
2018-08-28T22:47:21.310Z,8.07
2018-08-28T22:49:48.547Z,7.13
2018-08-28T22:52:15.648Z,7.47
2018-08-28T22:54:42.836Z,8.77
2018-08-28T22:57:09.985Z,8.00
2018-08-28T22:59:37.116Z,6.80
2018-08-28T23:02:04.557Z,7.60
2018-08-28T23:04:31.753Z,8.97
2018-08-28T23:06:58.857Z,9.90
2018-08-28T23:09:26.118Z,8.13
2018-08-28T23:12:00.005Z,8.47
2018-08-28T23:14:27.157Z,8.50
2018-08-28T23:16:54.299Z,8.00
2018-08-28T23:19:21.477Z,8.20
2018-08-28T23:21:48.746Z,9.40
2018-08-28T23:24:16.075Z,7.47
2018-08-28T23:26:43.409Z,8.80
2018-08-28T23:29:10.588Z,8.90
2018-08-28T23:31:37.684Z,7.53
2018-08-28T23:34:04.895Z,9.20
2018-08-28T23:39:06.521Z,8.40
2018-08-28T23:41:33.688Z,9.60
2018-08-28T23:44:01.044Z,9.33
2018-08-28T23:46:28.196Z,9.43
2018-08-28T23:48:55.305Z,9.87
2018-08-28T23:51:22.501Z,9.47
2018-08-28T23:53:49.589Z,9.40
2018-08-28T23:56:16.772Z,10.27
2018-08-28T23:58:44.116Z,10.70
